sensor_id;sensor_type;location;lat;lon;timestamp;P1;durP1;ratioP1;P2;durP2;ratioP2
64903;SDS011;51401;48.882;12.598;2023-09-30T00:02:04;17.58;;;8.07;;
64903;SDS011;51401;48.882;12.598;2023-09-30T00:04:30;18.08;;;7.28;;
64903;SDS011;51401;48.882;12.598;2023-09-30T00:06:55;18.63;;;8.40;;
64903;SDS011;51401;48.882;12.598;2023-09-30T00:09:20;16.20;;;7.10;;
64903;SDS011;51401;48.882;12.598;2023-09-30T00:11:46;18.15;;;7.78;;
64903;SDS011;51401;48.882;12.598;2023-09-30T00:14:12;19.35;;;7.70;;
64903;SDS011;51401;48.882;12.598;2023-09-30T00:16:37;18.70;;;7.82;;
64903;SDS011;51401;48.882;12.598;2023-09-30T00:19:02;17.65;;;7.53;;
64903;SDS011;51401;48.882;12.598;2023-09-30T00:21:28;21.15;;;7.80;;
64903;SDS011;51401;48.882;12.598;2023-09-30T00:23:54;16.60;;;8.13;;
64903;SDS011;51401;48.882;12.598;2023-09-30T00:26:19;17.27;;;7.47;;
64903;SDS011;51401;48.882;12.598;2023-09-30T00:28:45;18.10;;;7.45;;
64903;SDS011;51401;48.882;12.598;2023-09-30T00:31:11;18.02;;;7.53;;
64903;SDS011;51401;48.882;12.598;2023-09-30T00:33:37;17.87;;;7.30;;
64903;SDS011;51401;48.882;12.598;2023-09-30T00:36:08;17.88;;;7.18;;
64903;SDS011;51401;48.882;12.598;2023-09-30T00:38:35;17.40;;;7.57;;
64903;SDS011;51401;48.882;12.598;2023-09-30T00:41:01;15.95;;;7.18;;
64903;SDS011;51401;48.882;12.598;2023-09-30T00:43:26;15.23;;;7.07;;
64903;SDS011;51401;48.882;12.598;2023-09-30T00:45:52;16.35;;;6.63;;
64903;SDS011;51401;48.882;12.598;2023-09-30T00:48:28;17.63;;;7.30;;
64903;SDS011;51401;48.882;12.598;2023-09-30T00:50:54;19.00;;;7.38;;
64903;SDS011;51401;48.882;12.598;2023-09-30T00:53:20;18.02;;;7.72;;
64903;SDS011;51401;48.882;12.598;2023-09-30T00:55:46;15.50;;;7.50;;
64903;SDS011;51401;48.882;12.598;2023-09-30T00:58:11;19.08;;;6.80;;
64903;SDS011;51401;48.882;12.598;2023-09-30T01:00:37;18.13;;;7.38;;
64903;SDS011;51401;48.882;12.598;2023-09-30T01:03:02;18.33;;;7.28;;
64903;SDS011;51401;48.882;12.598;2023-09-30T01:05:30;12.43;;;6.15;;
64903;SDS011;51401;48.882;12.598;2023-09-30T01:07:55;14.55;;;6.32;;
64903;SDS011;51401;48.882;12.598;2023-09-30T01:10:21;15.55;;;6.30;;
64903;SDS011;51401;48.882;12.598;2023-09-30T01:12:46;14.77;;;6.18;;
64903;SDS011;51401;48.882;12.598;2023-09-30T01:15:12;17.27;;;6.72;;
64903;SDS011;51401;48.882;12.598;2023-09-30T01:17:37;15.30;;;6.10;;
64903;SDS011;51401;48.882;12.598;2023-09-30T01:20:03;13.32;;;5.65;;
64903;SDS011;51401;48.882;12.598;2023-09-30T01:22:33;13.70;;;6.18;;
64903;SDS011;51401;48.882;12.598;2023-09-30T01:24:58;13.13;;;6.37;;
64903;SDS011;51401;48.882;12.598;2023-09-30T01:27:23;15.40;;;6.33;;
64903;SDS011;51401;48.882;12.598;2023-09-30T01:29:50;12.13;;;5.35;;
64903;SDS011;51401;48.882;12.598;2023-09-30T01:32:16;15.48;;;5.72;;
64903;SDS011;51401;48.882;12.598;2023-09-30T01:34:41;15.30;;;6.40;;
64903;SDS011;51401;48.882;12.598;2023-09-30T01:37:07;13.48;;;5.93;;
64903;SDS011;51401;48.882;12.598;2023-09-30T01:39:32;14.80;;;6.38;;
64903;SDS011;51401;48.882;12.598;2023-09-30T01:41:58;13.73;;;6.18;;
64903;SDS011;51401;48.882;12.598;2023-09-30T01:44:24;11.80;;;5.72;;
64903;SDS011;51401;48.882;12.598;2023-09-30T01:46:50;13.02;;;5.75;;
64903;SDS011;51401;48.882;12.598;2023-09-30T01:49:16;14.57;;;5.75;;
64903;SDS011;51401;48.882;12.598;2023-09-30T01:51:43;15.82;;;6.38;;
64903;SDS011;51401;48.882;12.598;2023-09-30T01:54:09;12.20;;;5.32;;
64903;SDS011;51401;48.882;12.598;2023-09-30T01:56:35;12.38;;;5.85;;
64903;SDS011;51401;48.882;12.598;2023-09-30T01:59:01;12.98;;;5.68;;
64903;SDS011;51401;48.882;12.598;2023-09-30T02:01:26;15.63;;;6.47;;
64903;SDS011;51401;48.882;12.598;2023-09-30T02:03:52;12.85;;;5.43;;
64903;SDS011;51401;48.882;12.598;2023-09-30T02:06:17;14.07;;;5.47;;
64903;SDS011;51401;48.882;12.598;2023-09-30T02:08:42;12.85;;;5.35;;
64903;SDS011;51401;48.882;12.598;2023-09-30T02:11:09;10.65;;;5.28;;
64903;SDS011;51401;48.882;12.598;2023-09-30T02:13:34;11.55;;;5.07;;
64903;SDS011;51401;48.882;12.598;2023-09-30T02:16:00;12.88;;;5.60;;
64903;SDS011;51401;48.882;12.598;2023-09-30T02:18:25;11.75;;;4.70;;
64903;SDS011;51401;48.882;12.598;2023-09-30T02:20:51;10.70;;;5.28;;
64903;SDS011;51401;48.882;12.598;2023-09-30T02:23:18;12.40;;;4.85;;
64903;SDS011;51401;48.882;12.598;2023-09-30T02:25:43;12.35;;;5.57;;
64903;SDS011;51401;48.882;12.598;2023-09-30T02:28:09;13.23;;;4.75;;
64903;SDS011;51401;48.882;12.598;2023-09-30T02:30:35;11.50;;;4.80;;
64903;SDS011;51401;48.882;12.598;2023-09-30T02:33:01;11.90;;;5.40;;
64903;SDS011;51401;48.882;12.598;2023-09-30T02:35:27;12.80;;;5.40;;
64903;SDS011;51401;48.882;12.598;2023-09-30T02:37:52;12.07;;;4.68;;
64903;SDS011;51401;48.882;12.598;2023-09-30T02:40:18;14.05;;;5.90;;
64903;SDS011;51401;48.882;12.598;2023-09-30T02:42:45;14.52;;;5.45;;
64903;SDS011;51401;48.882;12.598;2023-09-30T02:45:10;10.25;;;5.22;;
64903;SDS011;51401;48.882;12.598;2023-09-30T02:47:36;10.55;;;4.75;;
64903;SDS011;51401;48.882;12.598;2023-09-30T02:50:04;13.70;;;5.85;;
64903;SDS011;51401;48.882;12.598;2023-09-30T02:52:33;15.30;;;5.55;;
64903;SDS011;51401;48.882;12.598;2023-09-30T02:54:59;13.95;;;5.50;;
64903;SDS011;51401;48.882;12.598;2023-09-30T02:57:24;11.63;;;5.22;;
64903;SDS011;51401;48.882;12.598;2023-09-30T02:59:52;10.48;;;4.85;;
64903;SDS011;51401;48.882;12.598;2023-09-30T03:02:19;13.10;;;5.35;;
64903;SDS011;51401;48.882;12.598;2023-09-30T03:04:44;13.32;;;5.43;;
64903;SDS011;51401;48.882;12.598;2023-09-30T03:07:10;15.00;;;5.72;;
64903;SDS011;51401;48.882;12.598;2023-09-30T03:09:35;13.38;;;5.10;;
64903;SDS011;51401;48.882;12.598;2023-09-30T03:12:03;14.48;;;5.70;;
64903;SDS011;51401;48.882;12.598;2023-09-30T03:14:29;13.88;;;5.10;;
64903;SDS011;51401;48.882;12.598;2023-09-30T03:16:56;13.48;;;4.90;;
64903;SDS011;51401;48.882;12.598;2023-09-30T03:19:24;13.88;;;5.82;;
64903;SDS011;51401;48.882;12.598;2023-09-30T03:21:49;11.05;;;4.88;;
64903;SDS011;51401;48.882;12.598;2023-09-30T03:24:15;14.38;;;5.47;;
64903;SDS011;51401;48.882;12.598;2023-09-30T03:26:40;11.80;;;5.13;;
64903;SDS011;51401;48.882;12.598;2023-09-30T03:29:06;11.45;;;5.32;;
64903;SDS011;51401;48.882;12.598;2023-09-30T03:31:33;13.88;;;5.18;;
64903;SDS011;51401;48.882;12.598;2023-09-30T03:33:59;13.60;;;6.03;;
64903;SDS011;51401;48.882;12.598;2023-09-30T03:36:25;12.68;;;5.53;;
64903;SDS011;51401;48.882;12.598;2023-09-30T03:38:51;13.52;;;5.45;;
64903;SDS011;51401;48.882;12.598;2023-09-30T03:41:19;14.35;;;5.30;;
64903;SDS011;51401;48.882;12.598;2023-09-30T03:43:44;11.48;;;5.35;;
64903;SDS011;51401;48.882;12.598;2023-09-30T03:46:10;11.33;;;5.43;;
64903;SDS011;51401;48.882;12.598;2023-09-30T03:48:37;13.48;;;5.85;;
64903;SDS011;51401;48.882;12.598;2023-09-30T03:51:10;13.18;;;5.43;;
64903;SDS011;51401;48.882;12.598;2023-09-30T03:53:42;13.80;;;5.40;;
64903;SDS011;51401;48.882;12.598;2023-09-30T03:56:09;11.82;;;5.97;;
64903;SDS011;51401;48.882;12.598;2023-09-30T03:58:36;12.38;;;5.43;;
64903;SDS011;51401;48.882;12.598;2023-09-30T04:01:03;12.05;;;5.78;;
64903;SDS011;51401;48.882;12.598;2023-09-30T04:03:29;15.95;;;5.20;;
64903;SDS011;51401;48.882;12.598;2023-09-30T04:05:54;13.20;;;5.60;;
64903;SDS011;51401;48.882;12.598;2023-09-30T04:08:20;12.52;;;5.22;;
64903;SDS011;51401;48.882;12.598;2023-09-30T04:10:47;13.57;;;5.47;;
64903;SDS011;51401;48.882;12.598;2023-09-30T04:13:12;14.15;;;6.03;;
64903;SDS011;51401;48.882;12.598;2023-09-30T04:15:38;14.20;;;5.50;;
64903;SDS011;51401;48.882;12.598;2023-09-30T04:18:03;12.23;;;5.60;;
64903;SDS011;51401;48.882;12.598;2023-09-30T04:20:32;10.63;;;5.53;;
64903;SDS011;51401;48.882;12.598;2023-09-30T04:22:57;13.97;;;5.47;;
64903;SDS011;51401;48.882;12.598;2023-09-30T04:25:23;15.80;;;6.20;;
64903;SDS011;51401;48.882;12.598;2023-09-30T04:27:52;12.93;;;6.13;;
64903;SDS011;51401;48.882;12.598;2023-09-30T04:30:18;12.38;;;5.28;;
64903;SDS011;51401;48.882;12.598;2023-09-30T04:32:44;11.45;;;5.22;;
64903;SDS011;51401;48.882;12.598;2023-09-30T04:35:09;10.57;;;5.30;;
64903;SDS011;51401;48.882;12.598;2023-09-30T04:37:35;13.18;;;5.50;;
64903;SDS011;51401;48.882;12.598;2023-09-30T04:40:03;10.73;;;5.70;;
64903;SDS011;51401;48.882;12.598;2023-09-30T04:42:43;13.13;;;5.53;;
64903;SDS011;51401;48.882;12.598;2023-09-30T04:45:11;14.57;;;6.13;;
64903;SDS011;51401;48.882;12.598;2023-09-30T04:47:37;12.95;;;5.78;;
64903;SDS011;51401;48.882;12.598;2023-09-30T04:50:07;16.70;;;6.78;;
64903;SDS011;51401;48.882;12.598;2023-09-30T04:52:34;14.65;;;6.00;;
64903;SDS011;51401;48.882;12.598;2023-09-30T04:54:59;15.05;;;5.75;;
64903;SDS011;51401;48.882;12.598;2023-09-30T04:57:25;11.70;;;5.32;;
64903;SDS011;51401;48.882;12.598;2023-09-30T04:59:51;16.70;;;6.05;;
64903;SDS011;51401;48.882;12.598;2023-09-30T05:02:17;14.35;;;5.90;;
64903;SDS011;51401;48.882;12.598;2023-09-30T05:04:42;13.40;;;5.75;;
64903;SDS011;51401;48.882;12.598;2023-09-30T05:07:07;12.13;;;5.00;;
64903;SDS011;51401;48.882;12.598;2023-09-30T05:09:33;17.40;;;6.18;;
64903;SDS011;51401;48.882;12.598;2023-09-30T05:11:59;13.25;;;5.68;;
64903;SDS011;51401;48.882;12.598;2023-09-30T05:14:24;11.40;;;5.10;;
64903;SDS011;51401;48.882;12.598;2023-09-30T05:16:49;12.90;;;5.80;;
64903;SDS011;51401;48.882;12.598;2023-09-30T05:19:15;11.05;;;5.28;;
64903;SDS011;51401;48.882;12.598;2023-09-30T05:21:40;11.20;;;4.55;;
64903;SDS011;51401;48.882;12.598;2023-09-30T05:24:06;12.05;;;5.53;;
64903;SDS011;51401;48.882;12.598;2023-09-30T05:26:32;10.88;;;4.60;;
64903;SDS011;51401;48.882;12.598;2023-09-30T05:28:57;10.77;;;5.13;;
64903;SDS011;51401;48.882;12.598;2023-09-30T05:31:24;12.90;;;5.30;;
64903;SDS011;51401;48.882;12.598;2023-09-30T05:33:49;10.50;;;5.03;;
64903;SDS011;51401;48.882;12.598;2023-09-30T05:36:15;11.23;;;4.90;;
64903;SDS011;51401;48.882;12.598;2023-09-30T05:38:40;12.00;;;5.93;;
64903;SDS011;51401;48.882;12.598;2023-09-30T05:41:06;11.65;;;4.47;;
64903;SDS011;51401;48.882;12.598;2023-09-30T05:43:32;12.52;;;5.25;;
64903;SDS011;51401;48.882;12.598;2023-09-30T05:45:57;13.32;;;5.22;;
64903;SDS011;51401;48.882;12.598;2023-09-30T05:48:23;12.40;;;5.35;;
64903;SDS011;51401;48.882;12.598;2023-09-30T05:50:48;12.30;;;5.68;;
64903;SDS011;51401;48.882;12.598;2023-09-30T05:53:14;9.32;;;5.00;;
64903;SDS011;51401;48.882;12.598;2023-09-30T05:55:40;11.55;;;5.47;;
64903;SDS011;51401;48.882;12.598;2023-09-30T05:58:12;11.13;;;4.93;;
64903;SDS011;51401;48.882;12.598;2023-09-30T06:00:39;12.18;;;5.43;;
64903;SDS011;51401;48.882;12.598;2023-09-30T06:03:05;10.68;;;5.10;;
64903;SDS011;51401;48.882;12.598;2023-09-30T06:05:32;10.55;;;4.30;;
64903;SDS011;51401;48.882;12.598;2023-09-30T06:07:59;11.40;;;4.70;;
64903;SDS011;51401;48.882;12.598;2023-09-30T06:10:27;10.43;;;4.93;;
64903;SDS011;51401;48.882;12.598;2023-09-30T06:12:53;10.95;;;5.15;;
64903;SDS011;51401;48.882;12.598;2023-09-30T06:15:20;9.43;;;4.70;;
64903;SDS011;51401;48.882;12.598;2023-09-30T06:17:49;13.27;;;4.85;;
64903;SDS011;51401;48.882;12.598;2023-09-30T06:20:16;12.10;;;5.13;;
64903;SDS011;51401;48.882;12.598;2023-09-30T06:22:43;10.95;;;4.50;;
64903;SDS011;51401;48.882;12.598;2023-09-30T06:25:10;8.32;;;3.88;;
64903;SDS011;51401;48.882;12.598;2023-09-30T06:27:36;8.35;;;4.15;;
64903;SDS011;51401;48.882;12.598;2023-09-30T06:30:03;10.07;;;4.25;;
64903;SDS011;51401;48.882;12.598;2023-09-30T06:32:30;8.35;;;4.05;;
64903;SDS011;51401;48.882;12.598;2023-09-30T06:34:55;10.60;;;4.40;;
64903;SDS011;51401;48.882;12.598;2023-09-30T06:37:20;8.67;;;4.10;;
64903;SDS011;51401;48.882;12.598;2023-09-30T06:39:46;10.70;;;4.25;;
64903;SDS011;51401;48.882;12.598;2023-09-30T06:42:13;11.48;;;4.88;;
64903;SDS011;51401;48.882;12.598;2023-09-30T06:44:38;10.13;;;3.83;;
64903;SDS011;51401;48.882;12.598;2023-09-30T06:47:03;9.70;;;4.57;;
64903;SDS011;51401;48.882;12.598;2023-09-30T06:49:29;8.07;;;4.03;;
64903;SDS011;51401;48.882;12.598;2023-09-30T06:51:55;8.70;;;4.38;;
64903;SDS011;51401;48.882;12.598;2023-09-30T06:54:21;9.63;;;4.53;;
64903;SDS011;51401;48.882;12.598;2023-09-30T06:56:46;8.27;;;4.63;;
64903;SDS011;51401;48.882;12.598;2023-09-30T06:59:11;7.90;;;3.70;;
64903;SDS011;51401;48.882;12.598;2023-09-30T07:01:37;9.43;;;4.27;;
64903;SDS011;51401;48.882;12.598;2023-09-30T07:04:02;8.73;;;4.25;;
64903;SDS011;51401;48.882;12.598;2023-09-30T07:06:28;8.60;;;4.30;;
64903;SDS011;51401;48.882;12.598;2023-09-30T07:08:54;9.15;;;4.45;;
64903;SDS011;51401;48.882;12.598;2023-09-30T07:11:28;5.95;;;3.67;;
64903;SDS011;51401;48.882;12.598;2023-09-30T07:13:54;8.07;;;4.20;;
64903;SDS011;51401;48.882;12.598;2023-09-30T07:16:21;9.48;;;4.43;;
64903;SDS011;51401;48.882;12.598;2023-09-30T07:18:46;8.75;;;4.10;;
64903;SDS011;51401;48.882;12.598;2023-09-30T07:21:11;5.97;;;3.53;;
64903;SDS011;51401;48.882;12.598;2023-09-30T07:23:37;10.15;;;3.88;;
64903;SDS011;51401;48.882;12.598;2023-09-30T07:26:03;7.17;;;4.53;;
64903;SDS011;51401;48.882;12.598;2023-09-30T07:28:28;7.85;;;3.80;;
64903;SDS011;51401;48.882;12.598;2023-09-30T07:30:54;6.95;;;3.83;;
64903;SDS011;51401;48.882;12.598;2023-09-30T07:33:20;8.25;;;3.70;;
64903;SDS011;51401;48.882;12.598;2023-09-30T07:35:45;8.65;;;4.07;;
64903;SDS011;51401;48.882;12.598;2023-09-30T07:38:11;7.57;;;3.80;;
64903;SDS011;51401;48.882;12.598;2023-09-30T07:40:36;9.07;;;3.88;;
64903;SDS011;51401;48.882;12.598;2023-09-30T07:43:02;7.00;;;3.47;;
64903;SDS011;51401;48.882;12.598;2023-09-30T07:45:27;7.47;;;3.33;;
64903;SDS011;51401;48.882;12.598;2023-09-30T07:47:53;8.38;;;4.10;;
64903;SDS011;51401;48.882;12.598;2023-09-30T07:50:18;7.47;;;3.75;;
64903;SDS011;51401;48.882;12.598;2023-09-30T07:52:44;7.18;;;4.00;;
64903;SDS011;51401;48.882;12.598;2023-09-30T07:55:10;7.03;;;3.45;;
64903;SDS011;51401;48.882;12.598;2023-09-30T07:57:36;6.00;;;3.15;;
64903;SDS011;51401;48.882;12.598;2023-09-30T08:00:03;6.82;;;3.47;;
64903;SDS011;51401;48.882;12.598;2023-09-30T08:02:39;6.22;;;3.17;;
64903;SDS011;51401;48.882;12.598;2023-09-30T08:05:05;6.40;;;2.95;;
64903;SDS011;51401;48.882;12.598;2023-09-30T08:07:31;6.68;;;3.10;;
64903;SDS011;51401;48.882;12.598;2023-09-30T08:09:58;6.97;;;3.30;;
64903;SDS011;51401;48.882;12.598;2023-09-30T08:12:23;8.38;;;3.20;;
64903;SDS011;51401;48.882;12.598;2023-09-30T08:14:49;5.47;;;2.78;;
64903;SDS011;51401;48.882;12.598;2023-09-30T08:17:16;6.10;;;2.85;;
64903;SDS011;51401;48.882;12.598;2023-09-30T08:19:42;5.40;;;2.75;;
64903;SDS011;51401;48.882;12.598;2023-09-30T08:22:08;6.70;;;3.00;;
64903;SDS011;51401;48.882;12.598;2023-09-30T08:24:34;5.68;;;2.97;;
64903;SDS011;51401;48.882;12.598;2023-09-30T08:27:00;6.03;;;2.88;;
64903;SDS011;51401;48.882;12.598;2023-09-30T08:29:26;8.98;;;2.90;;
64903;SDS011;51401;48.882;12.598;2023-09-30T08:31:51;5.63;;;2.55;;
64903;SDS011;51401;48.882;12.598;2023-09-30T08:34:16;3.95;;;2.25;;
64903;SDS011;51401;48.882;12.598;2023-09-30T08:36:42;5.32;;;2.90;;
64903;SDS011;51401;48.882;12.598;2023-09-30T08:39:08;5.30;;;2.58;;
64903;SDS011;51401;48.882;12.598;2023-09-30T08:41:35;5.47;;;2.55;;
64903;SDS011;51401;48.882;12.598;2023-09-30T08:44:01;5.13;;;2.90;;
64903;SDS011;51401;48.882;12.598;2023-09-30T08:46:30;5.93;;;2.35;;
64903;SDS011;51401;48.882;12.598;2023-09-30T08:48:57;5.05;;;2.55;;
64903;SDS011;51401;48.882;12.598;2023-09-30T08:51:23;3.42;;;2.60;;
64903;SDS011;51401;48.882;12.598;2023-09-30T08:53:49;5.32;;;2.63;;
64903;SDS011;51401;48.882;12.598;2023-09-30T08:56:17;3.70;;;2.17;;
64903;SDS011;51401;48.882;12.598;2023-09-30T08:58:45;4.68;;;2.40;;
64903;SDS011;51401;48.882;12.598;2023-09-30T09:01:10;5.22;;;2.88;;
64903;SDS011;51401;48.882;12.598;2023-09-30T09:03:36;4.88;;;2.80;;
64903;SDS011;51401;48.882;12.598;2023-09-30T09:06:01;5.67;;;2.20;;
64903;SDS011;51401;48.882;12.598;2023-09-30T09:08:27;5.25;;;2.65;;
64903;SDS011;51401;48.882;12.598;2023-09-30T09:10:56;3.28;;;2.28;;
64903;SDS011;51401;48.882;12.598;2023-09-30T09:13:24;3.67;;;2.28;;
64903;SDS011;51401;48.882;12.598;2023-09-30T09:15:50;3.30;;;2.00;;
64903;SDS011;51401;48.882;12.598;2023-09-30T09:18:33;3.97;;;1.88;;
64903;SDS011;51401;48.882;12.598;2023-09-30T09:21:22;4.72;;;2.22;;
64903;SDS011;51401;48.882;12.598;2023-09-30T09:23:49;3.17;;;2.17;;
64903;SDS011;51401;48.882;12.598;2023-09-30T09:26:25;3.92;;;1.80;;
64903;SDS011;51401;48.882;12.598;2023-09-30T09:28:59;3.28;;;1.67;;
64903;SDS011;51401;48.882;12.598;2023-09-30T09:31:26;3.72;;;1.92;;
64903;SDS011;51401;48.882;12.598;2023-09-30T09:34:03;4.90;;;2.50;;
64903;SDS011;51401;48.882;12.598;2023-09-30T09:36:44;3.03;;;1.55;;
64903;SDS011;51401;48.882;12.598;2023-09-30T09:39:11;3.58;;;1.90;;
64903;SDS011;51401;48.882;12.598;2023-09-30T09:41:48;2.35;;;1.70;;
64903;SDS011;51401;48.882;12.598;2023-09-30T09:44:21;3.60;;;1.80;;
64903;SDS011;51401;48.882;12.598;2023-09-30T09:46:47;4.07;;;2.23;;
64903;SDS011;51401;48.882;12.598;2023-09-30T09:49:14;4.43;;;2.00;;
64903;SDS011;51401;48.882;12.598;2023-09-30T09:54:13;3.53;;;1.55;;
64903;SDS011;51401;48.882;12.598;2023-09-30T09:56:39;3.28;;;1.70;;
64903;SDS011;51401;48.882;12.598;2023-09-30T09:59:06;3.20;;;1.55;;
64903;SDS011;51401;48.882;12.598;2023-09-30T10:01:35;2.83;;;1.73;;
64903;SDS011;51401;48.882;12.598;2023-09-30T10:04:01;2.63;;;1.30;;
64903;SDS011;51401;48.882;12.598;2023-09-30T10:06:27;3.22;;;1.30;;
64903;SDS011;51401;48.882;12.598;2023-09-30T10:08:53;2.13;;;1.23;;
64903;SDS011;51401;48.882;12.598;2023-09-30T10:11:20;1.60;;;1.10;;
64903;SDS011;51401;48.882;12.598;2023-09-30T10:13:53;2.50;;;1.38;;
64903;SDS011;51401;48.882;12.598;2023-09-30T10:19:10;1.88;;;1.15;;
64903;SDS011;51401;48.882;12.598;2023-09-30T10:24:44;2.20;;;1.20;;
64903;SDS011;51401;48.882;12.598;2023-09-30T10:29:57;3.70;;;1.50;;
64903;SDS011;51401;48.882;12.598;2023-09-30T10:37:44;1.75;;;0.98;;
64903;SDS011;51401;48.882;12.598;2023-09-30T10:40:10;1.45;;;0.98;;
64903;SDS011;51401;48.882;12.598;2023-09-30T10:42:51;1.25;;;0.70;;
64903;SDS011;51401;48.882;12.598;2023-09-30T10:50:57;0.88;;;0.73;;
64903;SDS011;51401;48.882;12.598;2023-09-30T10:53:45;2.08;;;0.60;;
64903;SDS011;51401;48.882;12.598;2023-09-30T10:56:18;1.48;;;0.65;;
64903;SDS011;51401;48.882;12.598;2023-09-30T10:58:46;1.13;;;0.75;;
64903;SDS011;51401;48.882;12.598;2023-09-30T11:01:13;0.50;;;0.50;;
64903;SDS011;51401;48.882;12.598;2023-09-30T11:03:40;1.40;;;0.70;;
64903;SDS011;51401;48.882;12.598;2023-09-30T11:06:06;0.95;;;0.73;;
64903;SDS011;51401;48.882;12.598;2023-09-30T11:08:32;0.75;;;0.60;;
64903;SDS011;51401;48.882;12.598;2023-09-30T11:10:58;1.17;;;0.60;;
64903;SDS011;51401;48.882;12.598;2023-09-30T11:13:30;0.68;;;0.60;;
64903;SDS011;51401;48.882;12.598;2023-09-30T11:16:00;0.52;;;0.43;;
64903;SDS011;51401;48.882;12.598;2023-09-30T11:18:30;0.82;;;0.65;;
64903;SDS011;51401;48.882;12.598;2023-09-30T11:21:07;0.60;;;0.50;;
64903;SDS011;51401;48.882;12.598;2023-09-30T11:23:34;1.42;;;0.60;;
64903;SDS011;51401;48.882;12.598;2023-09-30T11:26:00;0.65;;;0.60;;
64903;SDS011;51401;48.882;12.598;2023-09-30T11:28:34;0.68;;;0.60;;
64903;SDS011;51401;48.882;12.598;2023-09-30T11:31:01;0.85;;;0.70;;
64903;SDS011;51401;48.882;12.598;2023-09-30T11:33:27;1.15;;;0.80;;
64903;SDS011;51401;48.882;12.598;2023-09-30T11:36:11;1.02;;;0.75;;
64903;SDS011;51401;48.882;12.598;2023-09-30T11:38:36;0.75;;;0.70;;
64903;SDS011;51401;48.882;12.598;2023-09-30T11:41:02;1.30;;;0.60;;
64903;SDS011;51401;48.882;12.598;2023-09-30T11:43:34;0.68;;;0.55;;
64903;SDS011;51401;48.882;12.598;2023-09-30T11:46:04;1.42;;;0.55;;
64903;SDS011;51401;48.882;12.598;2023-09-30T11:48:33;0.68;;;0.52;;
64903;SDS011;51401;48.882;12.598;2023-09-30T11:51:00;0.57;;;0.55;;
64903;SDS011;51401;48.882;12.598;2023-09-30T11:53:28;1.65;;;0.75;;
64903;SDS011;51401;48.882;12.598;2023-09-30T11:55:55;0.88;;;0.40;;
64903;SDS011;51401;48.882;12.598;2023-09-30T11:58:21;0.57;;;0.40;;
64903;SDS011;51401;48.882;12.598;2023-09-30T12:00:47;0.57;;;0.40;;
64903;SDS011;51401;48.882;12.598;2023-09-30T12:03:15;0.45;;;0.40;;
64903;SDS011;51401;48.882;12.598;2023-09-30T12:05:41;1.00;;;0.45;;
64903;SDS011;51401;48.882;12.598;2023-09-30T12:08:06;0.32;;;0.30;;
64903;SDS011;51401;48.882;12.598;2023-09-30T12:10:32;0.50;;;0.40;;
64903;SDS011;51401;48.882;12.598;2023-09-30T12:12:57;1.35;;;0.40;;
64903;SDS011;51401;48.882;12.598;2023-09-30T12:15:22;0.63;;;0.50;;
64903;SDS011;51401;48.882;12.598;2023-09-30T12:17:47;0.68;;;0.55;;
64903;SDS011;51401;48.882;12.598;2023-09-30T12:20:13;0.90;;;0.43;;
64903;SDS011;51401;48.882;12.598;2023-09-30T12:22:43;0.95;;;0.55;;
64903;SDS011;51401;48.882;12.598;2023-09-30T12:25:08;0.32;;;0.32;;
64903;SDS011;51401;48.882;12.598;2023-09-30T12:27:34;0.60;;;0.60;;
64903;SDS011;51401;48.882;12.598;2023-09-30T12:29:59;0.40;;;0.40;;
64903;SDS011;51401;48.882;12.598;2023-09-30T12:32:29;1.38;;;0.70;;
64903;SDS011;51401;48.882;12.598;2023-09-30T12:34:55;1.20;;;0.80;;
64903;SDS011;51401;48.882;12.598;2023-09-30T12:37:20;1.33;;;0.40;;
64903;SDS011;51401;48.882;12.598;2023-09-30T12:39:45;1.43;;;0.70;;
64903;SDS011;51401;48.882;12.598;2023-09-30T12:42:10;1.07;;;0.70;;
64903;SDS011;51401;48.882;12.598;2023-09-30T12:44:37;1.23;;;0.80;;
64903;SDS011;51401;48.882;12.598;2023-09-30T12:47:03;2.05;;;0.90;;
64903;SDS011;51401;48.882;12.598;2023-09-30T12:49:30;1.20;;;0.70;;
64903;SDS011;51401;48.882;12.598;2023-09-30T12:51:55;0.88;;;0.70;;
64903;SDS011;51401;48.882;12.598;2023-09-30T12:54:22;1.63;;;0.82;;
64903;SDS011;51401;48.882;12.598;2023-09-30T12:56:48;1.70;;;0.90;;
64903;SDS011;51401;48.882;12.598;2023-09-30T12:59:15;1.63;;;1.00;;
64903;SDS011;51401;48.882;12.598;2023-09-30T13:01:42;1.35;;;0.80;;
64903;SDS011;51401;48.882;12.598;2023-09-30T13:04:08;0.82;;;0.65;;
64903;SDS011;51401;48.882;12.598;2023-09-30T13:06:34;2.03;;;1.15;;
64903;SDS011;51401;48.882;12.598;2023-09-30T13:09:00;2.28;;;0.93;;
64903;SDS011;51401;48.882;12.598;2023-09-30T13:11:26;1.98;;;1.30;;
64903;SDS011;51401;48.882;12.598;2023-09-30T13:13:51;2.10;;;1.00;;
64903;SDS011;51401;48.882;12.598;2023-09-30T13:16:16;2.00;;;1.20;;
64903;SDS011;51401;48.882;12.598;2023-09-30T13:18:42;2.65;;;1.40;;
64903;SDS011;51401;48.882;12.598;2023-09-30T13:21:07;2.05;;;1.00;;
64903;SDS011;51401;48.882;12.598;2023-09-30T13:23:33;2.43;;;1.10;;
64903;SDS011;51401;48.882;12.598;2023-09-30T13:25:59;1.88;;;1.10;;
64903;SDS011;51401;48.882;12.598;2023-09-30T13:28:24;3.63;;;1.17;;
64903;SDS011;51401;48.882;12.598;2023-09-30T13:30:49;1.73;;;0.93;;
64903;SDS011;51401;48.882;12.598;2023-09-30T13:33:15;2.47;;;1.27;;
64903;SDS011;51401;48.882;12.598;2023-09-30T13:35:40;2.25;;;1.33;;
64903;SDS011;51401;48.882;12.598;2023-09-30T13:38:05;2.97;;;1.57;;
64903;SDS011;51401;48.882;12.598;2023-09-30T13:40:31;2.65;;;1.23;;
64903;SDS011;51401;48.882;12.598;2023-09-30T13:42:56;2.43;;;1.37;;
64903;SDS011;51401;48.882;12.598;2023-09-30T13:45:25;2.28;;;1.20;;
64903;SDS011;51401;48.882;12.598;2023-09-30T13:47:50;3.95;;;2.05;;
64903;SDS011;51401;48.882;12.598;2023-09-30T13:50:15;4.20;;;1.95;;
64903;SDS011;51401;48.882;12.598;2023-09-30T13:52:41;3.30;;;2.55;;
64903;SDS011;51401;48.882;12.598;2023-09-30T13:55:06;3.03;;;1.50;;
64903;SDS011;51401;48.882;12.598;2023-09-30T13:57:33;2.65;;;1.40;;
64903;SDS011;51401;48.882;12.598;2023-09-30T14:00:00;2.80;;;1.45;;
64903;SDS011;51401;48.882;12.598;2023-09-30T14:02:25;2.93;;;1.70;;
64903;SDS011;51401;48.882;12.598;2023-09-30T14:04:50;2.22;;;1.55;;
64903;SDS011;51401;48.882;12.598;2023-09-30T14:07:16;2.45;;;1.63;;
64903;SDS011;51401;48.882;12.598;2023-09-30T14:09:44;3.58;;;2.03;;
64903;SDS011;51401;48.882;12.598;2023-09-30T14:12:09;3.08;;;1.70;;
64903;SDS011;51401;48.882;12.598;2023-09-30T14:14:35;2.35;;;1.63;;
64903;SDS011;51401;48.882;12.598;2023-09-30T14:17:00;2.58;;;1.42;;
64903;SDS011;51401;48.882;12.598;2023-09-30T14:19:32;2.45;;;1.42;;
64903;SDS011;51401;48.882;12.598;2023-09-30T14:21:57;2.63;;;1.50;;
64903;SDS011;51401;48.882;12.598;2023-09-30T14:24:23;3.42;;;1.80;;
64903;SDS011;51401;48.882;12.598;2023-09-30T14:26:48;3.90;;;1.80;;
64903;SDS011;51401;48.882;12.598;2023-09-30T14:29:14;2.25;;;1.40;;
64903;SDS011;51401;48.882;12.598;2023-09-30T14:31:39;2.03;;;1.23;;
64903;SDS011;51401;48.882;12.598;2023-09-30T14:34:04;3.03;;;1.45;;
64903;SDS011;51401;48.882;12.598;2023-09-30T14:36:30;1.98;;;1.60;;
64903;SDS011;51401;48.882;12.598;2023-09-30T14:38:57;3.47;;;1.98;;
64903;SDS011;51401;48.882;12.598;2023-09-30T14:41:22;3.20;;;1.83;;
64903;SDS011;51401;48.882;12.598;2023-09-30T14:43:48;2.28;;;1.50;;
64903;SDS011;51401;48.882;12.598;2023-09-30T14:46:13;3.70;;;1.50;;
64903;SDS011;51401;48.882;12.598;2023-09-30T14:48:38;4.23;;;1.90;;